createdAt,value
2024-04-13T00:00:20.930Z,2.08
2024-04-13T00:01:20.934Z,2.08
2024-04-13T00:02:21.012Z,2.07
2024-04-13T00:03:21.162Z,2.10
2024-04-13T00:04:21.263Z,2.08
2024-04-13T00:05:21.239Z,2.07
2024-04-13T00:06:21.314Z,2.11
2024-04-13T00:07:21.379Z,2.07
2024-04-13T00:08:21.457Z,2.09
2024-04-13T00:09:21.546Z,2.09
2024-04-13T00:10:21.584Z,2.06
2024-04-13T00:11:21.646Z,2.07
2024-04-13T00:12:21.732Z,2.08
2024-04-13T00:13:21.780Z,2.03
2024-04-13T00:14:21.854Z,2.05
2024-04-13T00:15:21.963Z,2.07
2024-04-13T00:16:22.022Z,2.05
2024-04-13T00:17:22.062Z,2.06
2024-04-13T00:18:22.178Z,2.07
2024-04-13T00:19:22.219Z,2.04
2024-04-13T00:20:22.278Z,2.03
2024-04-13T00:21:22.369Z,2.04
2024-04-13T00:22:22.428Z,2.04
2024-04-13T00:23:22.490Z,2.02
2024-04-13T00:24:22.603Z,2.00
2024-04-13T00:25:22.677Z,2.05
2024-04-13T00:26:22.690Z,2.07
2024-04-13T00:27:22.760Z,2.05
2024-04-13T00:28:22.788Z,2.05
2024-04-13T00:29:22.855Z,2.00
2024-04-13T00:30:22.938Z,2.02
2024-04-13T00:32:23.105Z,1.99
2024-04-13T00:33:23.135Z,2.01
2024-04-13T00:34:23.197Z,2.03
2024-04-13T00:35:23.254Z,2.02
2024-04-13T00:36:23.346Z,2.02
2024-04-13T00:37:23.337Z,2.02
2024-04-13T00:38:23.392Z,1.99
2024-04-13T00:39:23.438Z,2.02
2024-04-13T00:40:23.474Z,1.95
2024-04-13T00:41:23.521Z,2.02
2024-04-13T00:42:23.592Z,2.00
2024-04-13T00:43:23.623Z,1.98
2024-04-13T00:44:23.667Z,2.01
2024-04-13T00:45:23.718Z,2.03
2024-04-13T00:46:23.782Z,2.00
2024-04-13T00:47:23.861Z,1.97
2024-04-13T00:48:24.042Z,1.95
2024-04-13T00:49:23.960Z,1.98
2024-04-13T00:50:24.000Z,2.04
2024-04-13T00:51:24.077Z,1.95
2024-04-13T00:52:24.116Z,1.99
2024-04-13T00:53:24.190Z,1.99
2024-04-13T00:54:24.281Z,1.97
2024-04-13T00:55:24.318Z,1.94
2024-04-13T00:56:24.382Z,1.99
2024-04-13T00:57:24.477Z,1.95
2024-04-13T00:58:24.486Z,1.94
2024-04-13T00:59:24.535Z,1.91
2024-04-13T01:00:24.649Z,1.93
2024-04-13T01:01:24.693Z,1.92
2024-04-13T01:02:24.688Z,1.93
2024-04-13T01:03:24.758Z,1.90
2024-04-13T01:04:24.758Z,1.97
2024-04-13T01:05:24.789Z,1.92
2024-04-13T01:06:24.902Z,1.90
2024-04-13T01:07:24.891Z,1.92
2024-04-13T01:08:24.940Z,1.93
2024-04-13T01:09:25.058Z,1.88
2024-04-13T01:10:25.110Z,1.90
2024-04-13T01:11:25.134Z,1.91
2024-04-13T01:12:25.165Z,1.91
2024-04-13T01:13:25.233Z,1.89
2024-04-13T01:14:25.228Z,1.91
2024-04-13T01:15:25.302Z,1.90
2024-04-13T01:16:25.386Z,1.92
2024-04-13T01:17:25.421Z,1.91
2024-04-13T01:18:25.581Z,1.90
2024-04-13T01:19:25.493Z,1.86
2024-04-13T01:20:25.539Z,1.87
2024-04-13T01:21:25.649Z,1.88
2024-04-13T01:22:25.735Z,1.90
2024-04-13T01:23:25.747Z,1.87
2024-04-13T01:24:25.833Z,1.91
2024-04-13T01:25:25.801Z,1.88
2024-04-13T01:26:25.856Z,1.88
2024-04-13T01:27:25.939Z,1.91
2024-04-13T01:28:27.751Z,1.90
2024-04-13T01:29:25.967Z,1.85
2024-04-13T01:30:26.023Z,1.91
2024-04-13T01:31:25.969Z,1.89
2024-04-13T01:32:26.180Z,1.88
2024-04-13T01:33:26.076Z,1.88
2024-04-13T01:34:25.987Z,1.87
2024-04-13T01:35:25.983Z,1.84
2024-04-13T01:36:25.992Z,1.84
2024-04-13T01:37:25.960Z,1.85
2024-04-13T01:38:25.982Z,1.84
2024-04-13T01:39:25.990Z,1.87
2024-04-13T01:40:25.963Z,1.87
2024-04-13T01:41:25.963Z,1.83
2024-04-13T01:42:26.072Z,1.81
2024-04-13T01:43:25.987Z,1.87
2024-04-13T01:44:25.985Z,1.82
2024-04-13T01:45:26.061Z,1.84
2024-04-13T01:46:25.969Z,1.85
2024-04-13T01:47:26.076Z,1.84
2024-04-13T01:48:25.992Z,1.83
2024-04-13T01:49:25.990Z,1.83
2024-04-13T01:50:26.065Z,1.87
2024-04-13T01:51:26.093Z,1.85
2024-04-13T01:52:26.008Z,1.82
2024-04-13T01:53:26.065Z,1.84
2024-04-13T01:54:26.005Z,1.86
2024-04-13T01:55:26.066Z,1.87
2024-04-13T01:56:25.954Z,1.84
2024-04-13T01:57:26.081Z,1.84
2024-04-13T01:58:25.944Z,1.83
2024-04-13T01:59:25.947Z,1.83
2024-04-13T02:00:25.963Z,1.83
2024-04-13T02:01:26.103Z,1.84
2024-04-13T02:02:25.942Z,1.84
2024-04-13T02:03:26.017Z,1.83
2024-04-13T02:04:25.946Z,1.83
2024-04-13T02:05:25.942Z,1.81
2024-04-13T02:06:25.974Z,1.85
2024-04-13T02:07:26.036Z,1.82
2024-04-13T02:08:26.034Z,1.79
2024-04-13T02:09:26.102Z,1.82
2024-04-13T02:10:26.376Z,1.85
2024-04-13T02:11:26.331Z,1.83
2024-04-13T02:12:26.369Z,1.84
2024-04-13T02:13:26.330Z,1.83
2024-04-13T02:14:26.380Z,1.78
2024-04-13T02:15:26.497Z,1.83
2024-04-13T02:16:26.508Z,1.79
2024-04-13T02:17:26.564Z,1.76
2024-04-13T02:18:26.697Z,1.82
2024-04-13T02:19:26.759Z,1.77
2024-04-13T02:20:26.789Z,1.76
2024-04-13T02:21:26.848Z,1.77
2024-04-13T02:22:26.882Z,1.77
2024-04-13T02:23:26.957Z,1.78
2024-04-13T02:24:27.064Z,1.75
2024-04-13T02:25:27.082Z,1.78
2024-04-13T02:26:27.153Z,1.76
2024-04-13T02:27:27.235Z,1.75
2024-04-13T02:28:27.275Z,1.77
2024-04-13T02:29:27.341Z,1.75
2024-04-13T02:30:27.420Z,1.76
2024-04-13T02:31:27.439Z,1.72
2024-04-13T02:32:27.550Z,1.75
2024-04-13T02:33:27.667Z,1.80
2024-04-13T02:34:27.648Z,1.72
2024-04-13T02:35:27.705Z,1.73
2024-04-13T02:36:27.850Z,1.76
2024-04-13T02:37:27.827Z,1.73
2024-04-13T02:38:27.899Z,1.74
2024-04-13T02:39:28.034Z,1.73
2024-04-13T02:40:28.018Z,1.71
2024-04-13T02:41:28.073Z,1.73
2024-04-13T02:42:28.180Z,1.73
2024-04-13T02:43:28.180Z,1.72
2024-04-13T02:44:28.255Z,1.74
2024-04-13T02:45:28.374Z,1.72
2024-04-13T02:46:28.375Z,1.72
2024-04-13T02:47:28.471Z,1.69
2024-04-13T02:48:28.601Z,1.69
2024-04-13T02:49:28.598Z,1.72
2024-04-13T02:50:28.614Z,1.71
2024-04-13T02:51:28.680Z,1.72
2024-04-13T02:52:28.734Z,1.70
2024-04-13T02:53:28.792Z,1.70
2024-04-13T02:54:28.892Z,1.71
2024-04-13T02:55:28.915Z,1.66
2024-04-13T02:56:28.960Z,1.70
2024-04-13T02:57:29.021Z,1.67
2024-04-13T02:58:29.014Z,1.68
2024-04-13T02:59:29.031Z,1.66
2024-04-13T03:00:29.128Z,1.63
2024-04-13T03:01:29.137Z,1.65
2024-04-13T03:02:29.117Z,1.65
2024-04-13T03:03:29.265Z,1.65
2024-04-13T03:04:29.411Z,1.66
2024-04-13T03:05:29.152Z,1.63
2024-04-13T03:06:29.150Z,1.64
2024-04-13T03:07:29.151Z,1.62
2024-04-13T03:08:29.182Z,1.63
2024-04-13T03:09:29.235Z,1.60
2024-04-13T03:10:29.244Z,1.61
2024-04-13T03:11:29.313Z,1.59
2024-04-13T03:12:29.368Z,1.60
2024-04-13T03:13:29.377Z,1.59
2024-04-13T03:14:29.380Z,1.58
2024-04-13T03:15:29.450Z,1.59
2024-04-13T03:16:29.503Z,1.58
2024-04-13T03:17:29.618Z,1.58
2024-04-13T03:18:29.599Z,1.59
2024-04-13T03:19:29.636Z,1.54
2024-04-13T03:20:29.695Z,1.57
2024-04-13T03:21:29.754Z,1.55
2024-04-13T03:22:29.791Z,1.57
2024-04-13T03:23:29.847Z,1.58
2024-04-13T03:24:29.929Z,1.59
2024-04-13T03:25:29.911Z,1.55
2024-04-13T03:26:29.973Z,1.59
2024-04-13T03:27:30.040Z,1.58
2024-04-13T03:28:30.048Z,1.57
2024-04-13T03:29:30.069Z,1.56
2024-04-13T03:30:30.161Z,1.58
2024-04-13T03:31:30.165Z,1.59
2024-04-13T03:32:30.300Z,1.58
2024-04-13T03:33:30.391Z,1.57
2024-04-13T03:34:30.289Z,1.58
2024-04-13T03:35:30.334Z,1.59
2024-04-13T03:36:30.426Z,1.61
2024-04-13T03:37:30.440Z,1.58
2024-04-13T03:38:30.468Z,1.59
2024-04-13T03:39:30.574Z,1.61
2024-04-13T03:40:30.576Z,1.59
2024-04-13T03:41:30.589Z,1.60
2024-04-13T03:42:30.638Z,1.58
2024-04-13T03:43:30.647Z,1.59
2024-04-13T03:44:30.677Z,1.59
2024-04-13T03:45:30.757Z,1.59
2024-04-13T03:46:30.721Z,1.59
2024-04-13T03:47:30.890Z,1.57
2024-04-13T03:48:30.849Z,1.58
2024-04-13T03:49:30.782Z,1.59
2024-04-13T03:50:30.763Z,1.58
2024-04-13T03:51:30.839Z,1.58
2024-04-13T03:52:30.791Z,1.56
2024-04-13T03:53:30.919Z,1.56
2024-04-13T03:54:30.820Z,1.55
2024-04-13T03:55:30.784Z,1.58
2024-04-13T03:56:30.790Z,1.60
2024-04-13T03:57:30.877Z,1.56
2024-04-13T03:58:30.844Z,1.57
2024-04-13T03:59:30.896Z,1.54
2024-04-13T04:00:30.939Z,1.56
2024-04-13T04:01:30.973Z,1.59
2024-04-13T04:02:30.950Z,1.54
2024-04-13T04:03:31.102Z,1.56
2024-04-13T04:04:31.139Z,1.60
2024-04-13T04:05:31.079Z,1.56
2024-04-13T04:06:31.111Z,1.56
2024-04-13T04:07:31.112Z,1.57
2024-04-13T04:08:31.143Z,1.58
2024-04-13T04:09:31.191Z,1.57
2024-04-13T04:10:31.202Z,1.54
2024-04-13T04:11:31.213Z,1.57
2024-04-13T04:12:31.265Z,1.54
2024-04-13T04:13:31.259Z,1.56
2024-04-13T04:14:31.275Z,1.57
2024-04-13T04:15:31.331Z,1.54
2024-04-13T04:16:31.302Z,1.55
2024-04-13T04:17:31.430Z,1.58
2024-04-13T04:18:31.593Z,1.56
2024-04-13T04:19:31.330Z,1.55
2024-04-13T04:20:31.346Z,1.55
2024-04-13T04:21:31.395Z,1.56
2024-04-13T04:22:31.322Z,1.54
2024-04-13T04:23:31.334Z,1.52
2024-04-13T04:24:31.367Z,1.54
2024-04-13T04:25:31.358Z,1.55
2024-04-13T04:26:31.353Z,1.56
2024-04-13T04:27:31.413Z,1.55
2024-04-13T04:28:31.386Z,1.55
2024-04-13T04:29:31.413Z,1.54
2024-04-13T04:30:31.474Z,1.56
2024-04-13T04:31:31.425Z,1.56
2024-04-13T04:32:31.501Z,1.56
2024-04-13T04:33:31.596Z,1.54
2024-04-13T04:34:31.510Z,1.57
2024-04-13T04:35:31.539Z,1.56
2024-04-13T04:36:31.545Z,1.57
2024-04-13T04:37:31.547Z,1.54
2024-04-13T04:38:31.567Z,1.53
2024-04-13T04:39:31.706Z,1.57
2024-04-13T04:40:31.619Z,1.53
2024-04-13T04:41:31.641Z,1.56
2024-04-13T04:42:31.675Z,1.58
2024-04-13T04:43:31.644Z,1.52
2024-04-13T04:44:31.653Z,1.55
2024-04-13T04:45:31.688Z,1.55
2024-04-13T04:46:31.670Z,1.55
2024-04-13T04:47:31.750Z,1.56
2024-04-13T04:48:31.813Z,1.53
2024-04-13T04:49:31.734Z,1.54
2024-04-13T04:50:39.059Z,0.50
2024-04-13T04:51:39.096Z,0.50
2024-04-13T04:52:42.310Z,0.50
2024-04-13T04:53:39.116Z,0.50
2024-04-13T04:54:39.189Z,0.50
2024-04-13T04:55:39.150Z,0.50
2024-04-13T04:56:39.229Z,0.50
2024-04-13T04:57:39.376Z,0.50
2024-04-13T04:58:39.225Z,0.50
2024-04-13T04:59:39.244Z,0.52
2024-04-13T05:00:39.499Z,0.51
2024-04-13T05:01:39.278Z,0.50
2024-04-13T05:02:39.389Z,0.51
2024-04-13T05:03:39.494Z,0.51
2024-04-13T05:04:39.379Z,0.50
2024-04-13T05:05:39.369Z,0.51
2024-04-13T05:06:39.416Z,0.51
2024-04-13T05:07:39.503Z,0.52
2024-04-13T05:08:39.571Z,0.50
2024-04-13T05:09:39.779Z,0.50
2024-04-13T05:10:39.781Z,0.52
2024-04-13T05:11:39.842Z,0.51
2024-04-13T05:12:39.994Z,0.51
2024-04-13T05:13:40.009Z,0.51
2024-04-13T05:14:40.089Z,0.51
2024-04-13T05:15:40.243Z,0.52
2024-04-13T05:16:40.261Z,0.52
2024-04-13T05:17:40.422Z,0.51
2024-04-13T05:18:40.718Z,0.51
2024-04-13T05:19:40.656Z,0.51
2024-04-13T05:20:40.607Z,0.52
2024-04-13T05:21:40.830Z,0.52
2024-04-13T05:22:40.765Z,0.52
2024-04-13T05:23:40.848Z,0.51
2024-04-13T05:24:40.985Z,0.51
2024-04-13T05:25:41.022Z,0.51
2024-04-13T05:26:41.095Z,0.52
2024-04-13T05:27:41.415Z,0.53
2024-04-13T05:28:41.263Z,0.52
2024-04-13T05:29:41.342Z,0.51
2024-04-13T05:30:41.534Z,0.51
2024-04-13T05:31:41.513Z,0.51
2024-04-13T05:32:41.667Z,0.51
2024-04-13T05:33:41.789Z,0.51
2024-04-13T05:34:41.768Z,0.51
2024-04-13T05:35:41.846Z,0.51
2024-04-13T05:36:41.990Z,0.51
2024-04-13T05:37:42.027Z,0.51
2024-04-13T05:38:42.100Z,0.51
2024-04-13T05:39:42.198Z,0.52
2024-04-13T05:40:42.268Z,0.52
2024-04-13T05:41:42.352Z,0.51
2024-04-13T05:42:42.487Z,0.52
2024-04-13T05:43:42.530Z,0.52
2024-04-13T05:44:42.622Z,0.51
2024-04-13T05:45:42.749Z,0.51
2024-04-13T05:46:42.795Z,0.51
2024-04-13T05:47:42.900Z,0.51
2024-04-13T05:48:43.076Z,0.51
2024-04-13T05:49:43.046Z,0.51
2024-04-13T05:50:43.129Z,0.52
2024-04-13T05:51:43.228Z,0.52
2024-04-13T05:52:43.298Z,0.50
2024-04-13T05:53:43.380Z,0.51
2024-04-13T05:54:43.511Z,0.51
2024-04-13T05:55:43.559Z,0.52
2024-04-13T05:56:43.646Z,0.50
2024-04-13T05:57:43.781Z,0.51
2024-04-13T05:58:43.809Z,0.52
2024-04-13T05:59:43.906Z,0.52
2024-04-13T06:00:44.108Z,0.50
2024-04-13T06:01:44.072Z,0.50
2024-04-13T06:02:44.219Z,0.51
2024-04-13T06:03:44.393Z,0.51
2024-04-13T06:04:44.377Z,0.52
2024-04-13T06:05:44.419Z,0.51
2024-04-13T06:06:44.543Z,0.51
2024-04-13T06:07:44.620Z,0.52
2024-04-13T06:08:44.668Z,0.51
2024-04-13T06:09:44.924Z,0.52
2024-04-13T06:10:44.869Z,0.52
2024-04-13T06:11:47.746Z,0.51
2024-04-13T06:12:45.046Z,0.52
2024-04-13T06:13:45.034Z,0.52
2024-04-13T06:14:45.031Z,0.52
2024-04-13T06:15:45.118Z,0.51
2024-04-13T06:16:45.111Z,0.52
2024-04-13T06:17:45.146Z,0.51
2024-04-13T06:18:45.232Z,0.51
2024-04-13T06:19:45.149Z,0.51
2024-04-13T06:20:45.167Z,0.51
2024-04-13T06:21:45.320Z,0.52
2024-04-13T06:22:45.216Z,0.52
2024-04-13T06:23:45.251Z,0.52
2024-04-13T06:24:45.291Z,0.52
2024-04-13T06:25:45.295Z,0.52
2024-04-13T06:26:45.321Z,0.53
2024-04-13T06:27:45.380Z,0.52
2024-04-13T06:28:45.380Z,0.53
2024-04-13T06:29:45.405Z,0.52
2024-04-13T06:30:47.658Z,0.53
2024-04-13T06:31:45.475Z,0.53
2024-04-13T06:32:45.596Z,0.52
2024-04-13T06:33:45.735Z,0.52
2024-04-13T06:34:45.729Z,0.53
2024-04-13T06:35:45.823Z,0.52
2024-04-13T06:36:45.956Z,0.52
2024-04-13T06:37:45.967Z,0.53
2024-04-13T06:38:46.054Z,0.52
2024-04-13T06:39:46.196Z,0.51
2024-04-13T06:40:46.211Z,0.52
2024-04-13T06:41:46.287Z,0.52
2024-04-13T06:42:46.426Z,0.52
2024-04-13T06:43:46.440Z,0.52
2024-04-13T06:44:46.493Z,0.51
2024-04-13T06:45:46.721Z,0.52
2024-04-13T06:46:46.745Z,0.51
2024-04-13T06:47:46.705Z,0.52
2024-04-13T06:48:46.771Z,0.51
2024-04-13T06:49:46.809Z,0.51
2024-04-13T06:50:46.847Z,0.50
2024-04-13T06:51:46.934Z,0.51
2024-04-13T06:52:47.001Z,0.52
2024-04-13T06:53:47.028Z,0.51
2024-04-13T06:54:47.210Z,0.52
2024-04-13T06:55:47.146Z,0.53
2024-04-13T06:56:47.218Z,0.51
2024-04-13T06:57:47.360Z,0.52
2024-04-13T06:58:47.357Z,0.52
2024-04-13T06:59:47.431Z,0.51
2024-04-13T07:00:47.600Z,0.51
2024-04-13T07:01:47.577Z,0.52
2024-04-13T07:02:47.701Z,0.52
2024-04-13T07:03:47.788Z,0.51
2024-04-13T07:04:47.852Z,0.51
2024-04-13T07:05:47.882Z,0.52
2024-04-13T07:06:48.002Z,0.52
2024-04-13T07:07:48.012Z,0.52
2024-04-13T07:08:48.096Z,0.52
2024-04-13T07:09:48.358Z,0.52
2024-04-13T07:10:48.280Z,0.52
2024-04-13T07:11:48.323Z,0.52
2024-04-13T07:12:48.505Z,0.52
2024-04-13T07:13:48.472Z,0.52
2024-04-13T07:14:48.568Z,0.52
2024-04-13T07:15:48.650Z,0.52
2024-04-13T07:16:48.743Z,0.50
2024-04-13T07:17:50.941Z,0.51
2024-04-13T07:18:49.079Z,0.51
2024-04-13T07:19:49.054Z,0.50
2024-04-13T07:20:49.138Z,0.52
2024-04-13T07:21:49.226Z,0.51
2024-04-13T07:22:49.266Z,0.52
2024-04-13T07:23:49.359Z,0.51
2024-04-13T07:24:49.458Z,0.51
2024-04-13T07:25:49.494Z,0.50
2024-04-13T07:26:49.574Z,0.50
2024-04-13T07:27:49.714Z,0.51
2024-04-13T07:28:49.719Z,0.52
2024-04-13T07:29:49.791Z,0.52
2024-04-13T07:30:49.876Z,0.51
2024-04-13T07:31:49.946Z,0.51
2024-04-13T07:32:50.088Z,0.51
2024-04-13T07:33:50.155Z,0.51
2024-04-13T07:34:50.157Z,0.51
2024-04-13T07:35:50.222Z,0.51
2024-04-13T07:36:52.222Z,0.51
2024-04-13T07:37:50.313Z,0.52
2024-04-13T07:38:50.343Z,0.51
2024-04-13T07:39:50.413Z,0.52
2024-04-13T07:40:50.378Z,0.51
2024-04-13T07:41:50.400Z,0.52
2024-04-13T07:42:50.472Z,0.51
2024-04-13T07:43:50.439Z,0.51
2024-04-13T07:44:50.455Z,0.52
2024-04-13T07:45:50.492Z,0.50
2024-04-13T07:46:50.498Z,0.52
2024-04-13T07:47:50.597Z,0.51
2024-04-13T07:48:50.624Z,0.52
2024-04-13T07:49:50.599Z,0.52
2024-04-13T07:50:50.603Z,0.52
2024-04-13T07:51:50.682Z,0.52
2024-04-13T07:52:50.640Z,0.51
2024-04-13T07:53:50.673Z,0.52
2024-04-13T07:54:50.753Z,0.51
2024-04-13T07:55:50.725Z,0.51
2024-04-13T07:56:50.738Z,0.51
2024-04-13T07:57:50.835Z,0.52
2024-04-13T07:58:50.788Z,0.52
2024-04-13T07:59:50.812Z,0.51
2024-04-13T08:00:51.020Z,0.52
2024-04-13T08:01:50.935Z,0.52
2024-04-13T08:02:50.923Z,0.52
2024-04-13T08:03:51.043Z,0.52
2024-04-13T08:04:51.016Z,0.53
2024-04-13T08:05:50.939Z,0.53
2024-04-13T08:06:50.974Z,0.52
2024-04-13T08:07:50.994Z,0.52
2024-04-13T08:08:51.012Z,0.52
2024-04-13T08:09:51.073Z,0.52
2024-04-13T08:10:51.095Z,0.52
2024-04-13T08:11:51.074Z,0.52
2024-04-13T08:12:51.146Z,0.53
2024-04-13T08:13:51.107Z,0.52
2024-04-13T08:14:51.143Z,0.52
2024-04-13T08:15:51.249Z,0.52
2024-04-13T08:16:51.221Z,0.52
2024-04-13T08:17:51.244Z,0.52
2024-04-13T08:18:51.264Z,0.52
2024-04-13T08:19:51.246Z,0.52
2024-04-13T08:20:51.277Z,0.52
2024-04-13T08:21:51.377Z,0.52
2024-04-13T08:22:51.316Z,0.53
2024-04-13T08:23:51.349Z,0.53
2024-04-13T08:24:51.424Z,0.53
2024-04-13T08:25:51.378Z,0.51
2024-04-13T08:26:51.427Z,0.51
2024-04-13T08:27:51.566Z,0.52
2024-04-13T08:28:51.551Z,0.52
2024-04-13T08:29:51.622Z,0.52
2024-04-13T08:30:51.819Z,0.52
2024-04-13T08:31:51.784Z,0.52
2024-04-13T08:32:51.834Z,0.52
2024-04-13T08:33:51.953Z,0.52
2024-04-13T08:34:51.908Z,0.52
2024-04-13T08:35:51.977Z,0.52
2024-04-13T08:36:52.070Z,0.53
2024-04-13T08:37:52.095Z,0.51
2024-04-13T08:38:52.232Z,0.53
2024-04-13T08:39:52.240Z,0.52
2024-04-13T08:40:52.299Z,0.52
2024-04-13T08:41:52.329Z,0.51
2024-04-13T08:42:52.474Z,0.52
2024-04-13T08:43:52.457Z,0.51
2024-04-13T08:44:52.512Z,0.51
2024-04-13T08:45:52.626Z,0.52
2024-04-13T08:46:52.644Z,0.52
2024-04-13T08:47:52.749Z,0.52
2024-04-13T08:48:52.886Z,0.51
2024-04-13T08:49:52.817Z,0.51
2024-04-13T08:50:52.871Z,0.51
2024-04-13T08:51:53.007Z,0.51
2024-04-13T08:52:52.998Z,0.51
2024-04-13T08:53:53.058Z,0.51
2024-04-13T08:54:53.132Z,0.52
2024-04-13T08:55:53.185Z,0.51
2024-04-13T08:56:53.249Z,0.52
2024-04-13T08:57:53.331Z,0.51
2024-04-13T08:58:53.349Z,0.52
2024-04-13T08:59:53.408Z,0.51
2024-04-13T09:00:53.629Z,0.51
2024-04-13T09:01:53.613Z,0.52
2024-04-13T09:02:53.667Z,0.51
2024-04-13T09:03:53.723Z,0.51
2024-04-13T09:04:53.702Z,0.52
2024-04-13T09:05:53.761Z,0.51
2024-04-13T09:06:53.876Z,0.51
2024-04-13T09:07:53.875Z,0.53
2024-04-13T09:08:53.947Z,0.52
2024-04-13T09:09:53.993Z,0.52
2024-04-13T09:10:54.056Z,0.53
2024-04-13T09:11:54.109Z,0.53
2024-04-13T09:12:54.174Z,0.53
2024-04-13T09:13:54.232Z,0.52
2024-04-13T09:14:54.286Z,0.52
2024-04-13T09:15:54.405Z,0.53
2024-04-13T09:16:54.414Z,0.53
2024-04-13T09:17:54.516Z,0.52
2024-04-13T09:18:54.570Z,0.53
2024-04-13T09:19:54.589Z,0.53
2024-04-13T09:20:54.656Z,0.52
2024-04-13T09:21:54.725Z,0.53
2024-04-13T09:22:54.775Z,0.52
2024-04-13T09:23:54.836Z,0.52
2024-04-13T09:24:54.969Z,0.53
2024-04-13T09:25:54.940Z,0.53
2024-04-13T09:26:54.997Z,0.52
2024-04-13T09:27:55.061Z,0.52
2024-04-13T09:28:55.123Z,0.52
2024-04-13T09:29:55.176Z,0.52
2024-04-13T09:30:58.120Z,0.52
2024-04-13T09:31:55.293Z,0.52
2024-04-13T09:32:55.349Z,0.52
2024-04-13T09:33:55.365Z,0.52
2024-04-13T09:34:55.315Z,0.53
2024-04-13T09:35:55.346Z,0.53
2024-04-13T09:36:55.493Z,0.52
2024-04-13T09:37:55.403Z,0.52
2024-04-13T09:38:55.494Z,0.53
2024-04-13T09:39:55.465Z,0.52
2024-04-13T09:40:55.457Z,0.53
2024-04-13T09:41:55.487Z,0.53
2024-04-13T09:42:58.180Z,0.52
2024-04-13T09:43:55.523Z,0.52
2024-04-13T09:44:55.545Z,0.52
2024-04-13T09:45:55.597Z,0.52
2024-04-13T09:46:55.585Z,0.52
2024-04-13T09:47:55.668Z,0.52
2024-04-13T09:48:56.704Z,0.52
2024-04-13T09:49:55.915Z,0.52
2024-04-13T09:50:55.978Z,0.52
2024-04-13T09:51:56.035Z,0.53
2024-04-13T09:52:56.093Z,0.53
2024-04-13T09:53:56.141Z,0.53
2024-04-13T09:54:58.532Z,0.53
2024-04-13T09:55:56.226Z,0.53
2024-04-13T09:56:56.244Z,0.53
2024-04-13T09:57:56.271Z,0.52
2024-04-13T09:58:56.295Z,0.53
2024-04-13T09:59:56.336Z,0.54
2024-04-13T10:00:56.463Z,0.53
2024-04-13T10:01:56.603Z,0.53
2024-04-13T10:02:56.596Z,0.52
2024-04-13T10:03:56.477Z,0.53
2024-04-13T10:04:56.458Z,0.53
2024-04-13T10:05:56.487Z,0.52
2024-04-13T10:06:59.879Z,0.53
2024-04-13T10:07:57.524Z,0.53
2024-04-13T10:08:56.552Z,0.53
2024-04-13T10:09:56.582Z,0.53
2024-04-13T10:10:56.651Z,0.53
2024-04-13T10:11:56.638Z,0.52
2024-04-13T10:12:58.948Z,0.53
2024-04-13T10:13:56.687Z,0.53
2024-04-13T10:14:56.709Z,0.53
2024-04-13T10:15:56.741Z,0.53
2024-04-13T10:16:56.774Z,0.53
2024-04-13T10:17:57.802Z,0.53
2024-04-13T10:18:57.050Z,0.53
2024-04-13T10:19:56.825Z,0.53
2024-04-13T10:20:56.843Z,0.52
2024-04-13T10:21:56.865Z,0.52
2024-04-13T10:22:56.876Z,0.53
2024-04-13T10:23:56.896Z,0.53
2024-04-13T10:24:56.960Z,0.53
2024-04-13T10:25:56.941Z,0.52
2024-04-13T10:26:56.969Z,0.53
2024-04-13T10:27:56.987Z,0.52
2024-04-13T10:28:57.035Z,0.52
2024-04-13T10:29:57.032Z,0.52
2024-04-13T10:30:57.149Z,0.52
2024-04-13T10:31:57.127Z,0.52
2024-04-13T10:32:57.159Z,0.53
2024-04-13T10:33:57.226Z,0.53
2024-04-13T10:34:57.160Z,0.52
2024-04-13T10:35:57.216Z,0.53
2024-04-13T10:36:57.254Z,0.53
2024-04-13T10:37:57.225Z,0.53
2024-04-13T10:38:57.248Z,0.54
2024-04-13T10:39:57.348Z,0.53
2024-04-13T10:40:57.295Z,0.52
2024-04-13T10:41:57.320Z,0.53
2024-04-13T10:42:57.409Z,0.52
2024-04-13T10:43:57.372Z,0.53
2024-04-13T10:44:57.403Z,0.53
2024-04-13T10:45:57.511Z,0.53
2024-04-13T10:46:57.440Z,0.53
2024-04-13T10:47:57.624Z,0.53
2024-04-13T10:48:57.609Z,0.53
2024-04-13T10:50:04.476Z,0.53
2024-04-13T10:50:58.528Z,0.53
2024-04-13T10:51:57.603Z,0.53
2024-04-13T10:52:57.566Z,0.53
2024-04-13T10:53:57.583Z,0.53
2024-04-13T10:54:59.186Z,0.55
2024-04-13T10:55:57.627Z,0.55
2024-04-13T10:57:06.353Z,0.54
2024-04-13T10:57:58.694Z,0.54
2024-04-13T10:58:57.718Z,0.54
2024-04-13T10:59:57.710Z,0.55
2024-04-13T11:00:57.813Z,0.55
2024-04-13T11:01:57.781Z,0.56
2024-04-13T11:02:57.805Z,0.55
2024-04-13T11:03:57.822Z,0.55
2024-04-13T11:04:57.839Z,0.55
2024-04-13T11:05:57.856Z,0.55
2024-04-13T11:06:57.907Z,0.55
2024-04-13T11:07:57.899Z,0.55
2024-04-13T11:08:57.910Z,0.54
2024-04-13T11:09:57.925Z,0.54
2024-04-13T11:10:58.110Z,0.54
2024-04-13T11:11:57.978Z,0.55
2024-04-13T11:12:57.986Z,0.55
2024-04-13T11:13:58.001Z,0.54
2024-04-13T11:14:58.014Z,0.55
2024-04-13T11:15:58.122Z,0.54
2024-04-13T11:16:58.103Z,0.56
2024-04-13T11:17:58.218Z,0.54
2024-04-13T11:18:58.389Z,0.56
2024-04-13T11:19:58.267Z,0.55
2024-04-13T11:20:58.296Z,0.55
2024-04-13T11:21:58.385Z,0.54
2024-04-13T11:22:58.384Z,0.55
2024-04-13T11:23:58.433Z,0.55
2024-04-13T11:24:58.485Z,0.54
2024-04-13T11:25:58.525Z,0.54
2024-04-13T11:26:58.586Z,0.54
2024-04-13T11:27:58.654Z,0.54
2024-04-13T11:28:58.669Z,0.55
2024-04-13T11:29:58.706Z,0.54
2024-04-13T11:30:58.908Z,0.55
2024-04-13T11:31:58.846Z,0.55
2024-04-13T11:32:58.913Z,0.55
2024-04-13T11:33:58.920Z,0.55
2024-04-13T11:34:58.943Z,0.54
2024-04-13T11:35:58.992Z,0.54
2024-04-13T11:36:59.038Z,0.54
2024-04-13T11:37:59.089Z,0.54
2024-04-13T11:38:59.133Z,0.54
2024-04-13T11:39:59.231Z,0.54
2024-04-13T11:40:59.251Z,0.54
2024-04-13T11:41:59.290Z,0.55
2024-04-13T11:42:59.389Z,0.55
2024-04-13T11:43:59.388Z,0.55
2024-04-13T11:44:59.427Z,0.56
2024-04-13T11:45:59.588Z,0.56
2024-04-13T11:46:59.543Z,0.55
2024-04-13T11:47:59.638Z,0.54
2024-04-13T11:48:59.714Z,0.56
2024-04-13T11:49:59.682Z,0.55
2024-04-13T11:50:59.720Z,0.56
2024-04-13T11:51:59.778Z,0.55
2024-04-13T11:52:59.822Z,0.56
2024-04-13T11:53:59.888Z,0.55
2024-04-13T11:54:59.916Z,0.56
2024-04-13T11:55:59.975Z,0.56
2024-04-13T11:57:00.035Z,0.56
2024-04-13T11:58:00.095Z,0.55
2024-04-13T11:59:00.110Z,0.56
2024-04-13T12:00:00.204Z,0.55
2024-04-13T12:01:00.288Z,0.56
2024-04-13T12:02:00.259Z,0.56
2024-04-13T12:03:00.358Z,0.56
2024-04-13T12:04:00.455Z,0.56
2024-04-13T12:05:00.460Z,0.56
2024-04-13T12:06:02.004Z,0.56
2024-04-13T12:07:00.504Z,0.57
2024-04-13T12:08:00.577Z,0.56
2024-04-13T12:09:00.584Z,0.55
2024-04-13T12:10:00.639Z,0.55
2024-04-13T12:11:00.696Z,0.56
2024-04-13T12:12:02.887Z,0.56
2024-04-13T12:13:00.738Z,0.57
2024-04-13T12:14:00.748Z,0.57
2024-04-13T12:15:00.765Z,0.56
2024-04-13T12:16:00.952Z,0.56
2024-04-13T12:17:00.806Z,0.57
2024-04-13T12:18:00.922Z,0.56
2024-04-13T12:19:00.922Z,0.57
2024-04-13T12:20:00.877Z,0.57
2024-04-13T12:21:00.893Z,0.56
2024-04-13T12:22:01.025Z,0.57
2024-04-13T12:23:00.943Z,0.56
2024-04-13T12:24:01.921Z,0.56
2024-04-13T12:25:01.138Z,0.56
2024-04-13T12:26:01.006Z,0.57
2024-04-13T12:27:01.040Z,0.57
2024-04-13T12:28:01.052Z,0.56
2024-04-13T12:29:01.344Z,0.57
2024-04-13T12:30:01.562Z,0.56
2024-04-13T12:31:01.124Z,0.56
2024-04-13T12:32:01.204Z,0.56
2024-04-13T12:33:01.278Z,0.57
2024-04-13T12:34:01.281Z,0.56
2024-04-13T12:35:01.216Z,0.57
2024-04-13T12:36:01.460Z,0.56
2024-04-13T12:37:01.360Z,0.56
2024-04-13T12:38:01.290Z,0.56
2024-04-13T12:39:01.301Z,0.57
2024-04-13T12:40:01.390Z,0.57
2024-04-13T12:41:01.350Z,0.56
2024-04-13T12:42:02.618Z,0.58
2024-04-13T12:43:01.426Z,0.57
2024-04-13T12:44:01.399Z,0.57
2024-04-13T12:45:01.419Z,0.57
2024-04-13T12:46:01.499Z,0.56
2024-04-13T12:47:01.491Z,0.57
2024-04-13T12:48:01.527Z,0.56
2024-04-13T12:49:01.601Z,0.57
2024-04-13T12:50:01.530Z,0.57
2024-04-13T12:51:01.566Z,0.57
2024-04-13T12:52:01.573Z,0.57
2024-04-13T12:53:01.585Z,0.57
2024-04-13T12:54:01.615Z,0.57
2024-04-13T12:55:01.630Z,0.57
2024-04-13T12:56:01.696Z,0.58
2024-04-13T12:57:01.687Z,0.56
2024-04-13T12:58:01.697Z,0.57
2024-04-13T12:59:01.709Z,0.56
2024-04-13T13:00:01.726Z,0.58
2024-04-13T13:01:02.044Z,0.57
2024-04-13T13:02:01.782Z,0.57
2024-04-13T13:03:01.980Z,0.56
2024-04-13T13:04:01.902Z,0.57
2024-04-13T13:05:01.851Z,0.57
2024-04-13T13:06:01.887Z,0.57
2024-04-13T13:07:01.900Z,0.57
2024-04-13T13:08:01.913Z,0.57
2024-04-13T13:09:01.928Z,0.57
2024-04-13T13:10:02.001Z,0.57
2024-04-13T13:11:01.991Z,0.57
2024-04-13T13:12:01.991Z,0.57
2024-04-13T13:13:02.023Z,0.57
2024-04-13T13:14:02.030Z,0.58
2024-04-13T13:15:02.049Z,0.56
2024-04-13T13:16:02.074Z,0.58
2024-04-13T13:17:02.203Z,0.57
2024-04-13T13:18:02.206Z,0.58
2024-04-13T13:19:02.200Z,0.57
2024-04-13T13:20:02.240Z,0.57